Bechar, Algeria
Current Conditions -  °F | °C
As of 1:00 AM on Sunday 23 Nov 2014 (Local Time) from DAOR Reporting Station
Scattered Clouds Scattered Clouds  
Wind Chill: 57°   Ceiling: Unl
Heat Index: 57°   Visibility: 6mi
Dew Point: 48°   Wind: 16mph
Humidity: 72%   Direction: 180°S
Pressure: 30.12"   Gusts: NA
Location:  31.62°N, 2.23°W
Report Text: DAOR 230000Z 18014KT 9999 SCT033 SCT100 14/09 Q1020
Loading
Personal Weather Stations






























Interactive Weather Map New forecast layout! Learn more

10-Day Weather Forecast

Advertisements
Track Severe Weather on mobile